• Join FlightAware (Why Join?)
  • Login
  • US Flag 
07:35PM EDT


 

Airport Tracker/Info


-or-


 

Live Flight TrackerFlight Track Log ✈ SAS1207 ✈ 05-May-2012 ✈ EKCH / CPH - EKYT / AAL

Flight Track Log - Related Links

Times and Time Zones

All times are in EDT time to prevent confusion due to time zone crossing. See the SAS1207 flight status page for this flight to view local times or setup timezone preferences in your user account.

Time Position Orientation Groundspeed Altitude Reporting Facility
EDT Latitude Longitude Course Direction KTS MPH feet Rate Location/Type
03:40AM 55.6488 12.6006 315° West  Level Estimated
03:41AM 55.7065 12.4966 315° West  Level Estimated
03:42AM 55.7641 12.3923 314° West  Level Estimated
03:43AM 55.8217 12.2877 314° West  Level Estimated
03:44AM 55.8792 12.1828 314° West  Level Estimated
03:45AM 55.9366 12.0775 314° West  Level Estimated
03:46AM 55.9939 11.9720 314° West  Level Estimated
03:47AM 56.0511 11.8661 314° West  Level Estimated
03:48AM 56.1082 11.7599 314° West  Level Estimated
03:49AM 56.1652 11.6535 314° West  Level Estimated
03:50AM 56.2221 11.5466 314° West  Level Estimated
03:51AM 56.2790 11.4395 314° West  Level Estimated
03:52AM 56.3357 11.3321 314° West  Level Estimated
03:53AM 56.3924 11.2243 313° West  Level Estimated
03:54AM 56.4489 11.1162 313° West  Level Estimated
03:55AM 56.5054 11.0078 313° West  Level Estimated
03:56AM 56.5618 10.8991 313° West  Level Estimated
03:57AM 56.6532 10.7217 313° West  Level Estimated
03:58AM 56.7443 10.5434 313° West  Level Estimated
03:59AM 56.8352 10.3643 313° West  Level Estimated
04:00AM 56.9258 10.1844 313° West  Level Estimated
04:01AM 57.0162 10.0035 312° West  Level Estimated
04:02AM 57.1063 9.8218 132° Southeast  Level Estimated
04:03AM 57.0162 10.0035 312° West  Level Estimated
04:04AM 57.1063 9.8218 132° Southeast  Level Estimated
04:05AM 57.0162 10.0035 312° West  Level Estimated
04:06AM 57.1063 9.8218 132° Southeast  Level Estimated
04:07AM 57.0162 10.0035 312° West  Level Estimated
04:08AM 57.1063 9.8218 132° Southeast  Level Estimated
04:09AM 57.0162 10.0035 312° West  Level Estimated
04:10AM 57.1063 9.8218 132° Southeast  Level Estimated
04:11AM 57.0162 10.0035 132° Southeast  Level Estimated